Pagrindinis puslapis
METAR-TAF:

METAR-TAF

Oro uostai :

Tuzla, Bosnija ir Hercegovina

platuma: 44-33N, ilguma: 018-42E, Aukštis: 306 m

Dabartinis oras

Ataskaita buvo paskelbta 50 minutes, ne 18:00 UTC
Vėjas 2 kt nuo kintamojo kryptimis
Temperatūra 11°C
Drėgmė 71%
Slėgis 1024 hPa
Matomumas 10 km arba daugiau
Mažai debesys ne aukštis 6000 ft

METAR: LQTZ 191800Z VRB02KT 9999 FEW060 11/06 Q1024

Laikas: 20:50 (18:50 UTC)

Prognozė

Ataskaita buvo paskelbta 1 valandą ir 50 minutes, ne 17:00 UTC
Prognozė galioja nuo 19 metu 18 UTC su 20 metu 18 UTC
Vėjas 5 kt iš Rytų
Matomumas 10 km arba daugiau
Išsisklaidę debesys ne aukštis 4500 ft
Tikimybė 40% :
Laikinai
nuo 20 metu 02 UTC su 20 metu 07 UTC
Matomumas: 2500 m
Su prošvaistėmis ne aukštis 400 ft
rūkana

TAF: LQTZ 191700Z 1918/2018 09005KT 9999 SCT045 TX19/2013Z TN04/2004Z PROB40 TEMPO 2002/2007 2500 BR BKN004

Orai ataskaitas ir orų prognozės (METAR, TAF).

turimą stotys yra geltonos ir raudonos taškus žemėlapyje.

Perkelti pele per norėdami pamatyti stoties vardą.

Tada spustelėkite, norėdami matyti oro stebėjimo ir prognozės.

Norėdami pakeisti žemėlapį: spustelėkite ant žalios mygtukų su juodo kryžiaus žemyn,; žalią mygtuką su brūkšneliu, jei norite nutolinti; arba žalių rodyklių gretimoms žemėlapius.


METAR-TAF: